Time;durP1;ratioP1;P1;durP2;ratioP2;P2;SDS_P1;SDS_P2;PMS_P1;PMS_P2;Temp;Humidity;BMP_temperature;BMP_pressure;BME280_temperature;BME280_humidity;BME280_pressure;Samples;Min_cycle;Max_cycle;Signal;HPM_P1;HPM_P2
2022/11/21 00:01:41;;;;;;;63.15;18.02;;;;;;;11.15;100.00;99537.36;1723410;83;21208;-79
2022/11/21 00:04:47;;;;;;;44.50;15.10;;;;;;;11.35;100.00;99533.91;1723454;83;21253;-79
2022/11/21 00:07:53;;;;;;;46.75;16.05;;;;;;;11.62;100.00;99519.34;1719766;82;21215;-79
2022/11/21 00:10:59;;;;;;;63.17;18.05;;;;;;;11.33;100.00;99528.62;1706190;83;21181;-78
2022/11/21 00:14:05;;;;;;;33.83;14.70;;;;;;;11.21;100.00;99517.92;1706753;82;21887;-77
2022/11/21 00:17:11;;;;;;;43.45;15.10;;;;;;;11.49;100.00;99518.73;1706681;84;21239;-78
2022/11/21 00:20:17;;;;;;;76.07;17.20;;;;;;;11.27;100.00;99525.33;1706521;84;21256;-79
2022/11/21 00:23:27;;;;;;;58.00;14.50;;;;;;;11.21;100.00;99527.50;1712438;82;21232;-79
2022/11/21 00:26:31;;;;;;;57.10;15.48;;;;;;;11.37;100.00;99517.59;1723110;83;21236;-79
2022/11/21 00:29:37;;;;;;;60.23;15.80;;;;;;;11.41;100.00;99516.15;1722074;82;21788;-78
2022/11/21 00:32:42;;;;;;;62.83;17.98;;;;;;;11.68;100.00;99506.20;1723497;82;21244;-78
2022/11/21 00:35:48;;;;;;;68.15;18.37;;;;;;;11.50;100.00;99495.77;1723351;83;21224;-78
2022/11/21 00:38:53;;;;;;;84.77;18.27;;;;;;;12.01;100.00;99495.41;1722541;82;21188;-79
2022/11/21 00:41:59;;;;;;;57.85;16.32;;;;;;;12.35;100.00;99500.99;1723334;83;21728;-78
2022/11/21 00:45:05;;;;;;;63.28;16.87;;;;;;;11.87;100.00;99485.45;1723164;83;21149;-78
2022/11/21 00:48:10;;;;;;;66.22;16.27;;;;;;;11.57;100.00;99478.52;1722974;82;21759;-78
2022/11/21 00:51:17;;;;;;;65.70;16.40;;;;;;;11.40;100.00;99476.13;1723101;83;21728;-77
2022/11/21 00:54:22;;;;;;;69.20;16.48;;;;;;;11.49;100.00;99468.08;1722412;82;21761;-78
2022/11/21 00:57:28;;;;;;;65.78;16.77;;;;;;;11.47;100.00;99477.52;1723349;82;21169;-79
2022/11/21 01:00:34;;;;;;;61.88;17.05;;;;;;;11.29;100.00;99475.31;1722230;83;21698;-79
2022/11/21 01:03:41;;;;;;;48.23;14.40;;;;;;;11.37;100.00;99486.63;1722641;82;21180;-78
2022/11/21 01:06:48;;;;;;;59.18;15.43;;;;;;;11.81;100.00;99486.25;1723361;83;21727;-78
2022/11/21 01:09:54;;;;;;;54.20;15.35;;;;;;;11.44;100.00;99481.53;1722595;83;21196;-79
2022/11/21 01:13:00;;;;;;;55.20;14.95;;;;;;;11.98;100.00;99480.73;1723145;82;21204;-79
2022/11/21 01:16:19;;;;;;;51.45;14.73;;;;;;;12.05;100.00;99481.31;1723414;83;21168;-78
2022/11/21 01:19:24;;;;;;;67.87;15.83;;;;;;;12.01;100.00;99473.48;1722219;82;21650;-79
2022/11/21 01:22:30;;;;;;;58.25;15.25;;;;;;;11.82;100.00;99461.94;1723344;82;21220;-79
2022/11/21 01:25:36;;;;;;;45.78;13.88;;;;;;;12.17;100.00;99476.37;1722609;83;21194;-79
2022/11/21 01:28:42;;;;;;;78.62;14.68;;;;;;;11.97;100.00;99483.16;1722674;82;21192;-78
2022/11/21 01:31:48;;;;;;;55.05;14.70;;;;;;;12.06;100.00;99469.29;1723291;83;21177;-78
2022/11/21 01:34:54;;;;;;;56.68;15.45;;;;;;;11.80;100.00;99461.77;1723408;83;21212;-78
2022/11/21 01:38:00;;;;;;;55.00;13.83;;;;;;;11.71;100.00;99465.20;1723079;82;21199;-78
2022/11/21 01:41:07;;;;;;;63.42;15.38;;;;;;;12.19;100.00;99471.55;1710645;83;21200;-78
2022/11/21 01:44:27;;;;;;;60.48;17.80;;;;;;;11.94;100.00;99477.24;1688734;83;21215;-78
2022/11/21 01:47:21;;;;;;;59.60;15.50;;;;;;;11.91;100.00;99473.03;1703599;83;21536;-78
2022/11/21 01:50:27;;;;;;;61.28;17.37;;;;;;;11.94;100.00;99476.72;1703059;84;21209;-78
2022/11/21 01:53:33;;;;;;;45.90;13.95;;;;;;;12.39;100.00;99496.25;1703176;83;21219;-78
2022/11/21 01:56:46;;;;;;;52.98;14.43;;;;;;;12.75;100.00;99506.00;1702715;84;21773;-77
2022/11/21 02:00:08;;;;;;;59.60;14.53;;;;;;;12.72;100.00;99505.91;1702624;84;21192;-78
2022/11/21 02:03:18;;;;;;;63.95;15.58;;;;;;;12.96;100.00;99482.48;1703321;83;21255;-78
2022/11/21 02:06:25;;;;;;;68.70;15.28;;;;;;;12.93;100.00;99488.91;1703729;84;21236;-78
2022/11/21 02:09:31;;;;;;;71.30;14.58;;;;;;;12.19;100.00;99485.25;1702376;83;21231;-78
2022/11/21 02:12:57;;;;;;;64.90;14.85;;;;;;;12.00;100.00;99484.14;1703716;83;21168;-78
2022/11/21 02:16:02;;;;;;;82.53;16.75;;;;;;;11.88;100.00;99483.02;1703613;84;21176;-78
2022/11/21 02:19:09;;;;;;;87.85;16.70;;;;;;;11.94;100.00;99486.30;1702700;83;21243;-78
2022/11/21 02:22:20;;;;;;;99.72;17.70;;;;;;;12.84;100.00;99486.05;1702608;83;21787;-78
2022/11/21 02:25:36;;;;;;;69.40;16.37;;;;;;;12.13;100.00;99481.09;1703637;84;21184;-78
2022/11/21 02:28:42;;;;;;;112.88;16.30;;;;;;;11.95;100.00;99483.03;1702375;83;21776;-78
2022/11/21 02:31:47;;;;;;;89.85;15.70;;;;;;;11.83;100.00;99486.91;1702428;84;21197;-78
2022/11/21 02:34:54;;;;;;;100.67;16.02;;;;;;;11.86;100.00;99487.03;1703823;84;21220;-78
2022/11/21 02:38:12;;;;;;;83.50;16.30;;;;;;;11.86;100.00;99480.19;1703476;83;21247;-78
2022/11/21 02:41:28;;;;;;;58.68;16.85;;;;;;;11.76;100.00;99464.94;1703914;81;21196;-78
2022/11/21 02:44:42;;;;;;;86.08;18.10;;;;;;;12.02;100.00;99472.43;1732368;81;21219;-78
2022/11/21 02:47:49;;;;;;;84.62;15.15;;;;;;;12.47;100.00;99475.50;1733796;81;21231;-78
2022/11/21 02:50:57;;;;;;;121.13;16.35;;;;;;;12.76;100.00;99472.04;1733281;83;21260;-77
2022/11/21 02:53:57;;;;;;;99.37;15.40;;;;;;;12.43;100.00;99466.52;1732793;81;21236;-78
2022/11/21 02:56:50;;;;;;;105.00;16.23;;;;;;;12.44;100.00;99462.72;1733027;83;21208;-78
2022/11/21 02:59:36;;;;;;;97.12;15.03;;;;;;;12.21;100.00;99465.84;1732396;81;21756;-78
2022/11/21 03:02:30;;;;;;;96.72;14.65;;;;;;;12.32;100.00;99456.15;1732373;81;21160;-79
2022/11/21 03:05:17;;;;;;;59.73;13.58;;;;;;;12.25;100.00;99451.51;1733375;83;21188;-77
2022/11/21 03:08:11;;;;;;;135.52;15.68;;;;;;;12.59;100.00;99455.66;1733197;81;21247;-77
2022/11/21 03:11:16;;;;;;;102.43;16.00;;;;;;;12.50;100.00;99463.25;1733431;83;21787;-77
2022/11/21 03:14:16;;;;;;;65.67;14.33;;;;;;;12.42;100.00;99465.69;1732963;81;21234;-77
2022/11/21 03:17:22;;;;;;;111.28;16.67;;;;;;;12.42;100.00;99467.55;1732456;81;21176;-77
2022/11/21 03:20:28;;;;;;;102.92;17.02;;;;;;;12.54;100.00;99465.89;1733883;83;21169;-77
2022/11/21 03:23:34;;;;;;;127.78;17.12;;;;;;;12.37;100.00;99465.44;1732059;81;21215;-78
2022/11/21 03:26:39;;;;;;;64.72;15.23;;;;;;;12.59;100.00;99461.15;1704425;83;21192;-78
2022/11/21 03:29:45;;;;;;;67.78;16.60;;;;;;;12.45;100.00;99463.03;1753642;82;21171;-79
2022/11/21 03:32:52;;;;;;;97.88;17.37;;;;;;;12.74;100.00;99465.90;1720865;83;21263;-79
2022/11/21 03:35:58;;;;;;;103.05;16.20;;;;;;;12.57;100.00;99471.50;1753507;82;21211;-78
2022/11/21 03:39:03;;;;;;;76.92;16.00;;;;;;;12.74;100.00;99477.72;1720940;83;21211;-79
2022/11/21 03:42:10;;;;;;;75.08;16.07;;;;;;;12.53;100.00;99471.07;1726472;80;21819;-78
2022/11/21 03:45:10;;;;;;;;;;;;;;;12.55;100.00;99482.66;1706208;84;21713;-78
2022/11/21 03:48:16;;;;;;;80.75;17.20;;;;;;;12.40;100.00;99469.67;1703335;83;20670;-78
2022/11/21 03:51:22;;;;;;;64.77;17.30;;;;;;;12.05;100.00;99467.60;1703644;84;21236;-77
2022/11/21 03:54:27;;;;;;;85.15;17.07;;;;;;;11.84;100.00;99473.52;1702522;83;21760;-77
2022/11/21 03:57:34;;;;;;;69.30;15.43;;;;;;;11.63;100.00;99481.84;1703303;83;21192;-76
2022/11/21 04:00:40;;;;;;;69.12;17.05;;;;;;;11.53;100.00;99483.59;1703693;84;21729;-77
2022/11/21 04:03:48;;;;;;;50.63;15.20;;;;;;;11.42;100.00;99484.13;1702953;83;21196;-77
2022/11/21 04:06:54;;;;;;;59.08;13.95;;;;;;;11.41;100.00;99474.23;1702408;83;21214;-77
2022/11/21 04:10:01;;;;;;;82.55;15.18;;;;;;;11.40;100.00;99476.13;1703789;84;21247;-77
2022/11/21 04:13:08;;;;;;;72.32;14.93;;;;;;;11.57;100.00;99473.05;1702491;83;21244;-77
2022/11/21 04:16:14;;;;;;;62.45;15.45;;;;;;;11.64;100.00;99476.15;1702246;84;21260;-78
2022/11/21 04:19:20;;;;;;;35.95;16.62;;;;;;;11.65;100.00;99460.55;1702317;83;21772;-78
2022/11/21 04:22:27;;;;;;;86.70;16.75;;;;;;;11.62;100.00;99459.09;1703306;83;21184;-78
2022/11/21 04:25:33;;;;;;;67.75;17.55;;;;;;;11.37;100.00;99461.99;1703994;84;21180;-78
2022/11/21 04:28:32;;;;;;;68.07;15.75;;;;;;;11.61;100.00;99465.59;1703726;83;21999;-78
2022/11/21 04:31:38;;;;;;;67.82;15.32;;;;;;;11.47;100.00;99468.78;1703874;84;21231;-78
2022/11/21 04:34:46;;;;;;;79.90;16.12;;;;;;;11.46;100.00;99462.99;1703825;84;21180;-78
2022/11/21 04:37:47;;;;;;;95.47;16.85;;;;;;;11.47;100.00;99464.67;1703624;83;21220;-79
2022/11/21 04:40:39;;;;;;;92.50;18.17;;;;;;;10.91;100.00;99455.16;1703860;84;21157;-77
2022/11/21 04:43:32;;;;;;;92.25;20.05;;;;;;;10.63;100.00;99462.02;1702877;83;21250;-77
2022/11/21 04:46:38;;;;;;;95.85;21.70;;;;;;;10.93;100.00;99458.56;1724267;83;21175;-78
2022/11/21 04:49:44;;;;;;;107.90;21.93;;;;;;;11.38;100.00;99465.89;1722857;83;21181;-78
2022/11/21 04:52:53;;;;;;;102.97;22.30;;;;;;;11.13;100.00;99474.27;1723857;82;21192;-78
2022/11/21 04:56:00;;;;;;;106.20;22.80;;;;;;;11.46;100.00;99471.73;1724321;83;21185;-78
2022/11/21 04:59:05;;;;;;;125.55;21.37;;;;;;;11.41;100.00;99468.76;1723806;82;21208;-79
2022/11/21 05:02:04;;;;;;;191.05;21.68;;;;;;;11.43;100.00;99471.62;1724197;83;21733;-77
2022/11/21 05:04:57;;;;;;;36.40;11.50;;;;;;;11.34;100.00;99478.31;1724061;83;21173;-77
2022/11/21 05:07:44;;;;;;;17.57;7.90;;;;;;;11.54;100.00;99479.79;1722940;82;21223;-77
2022/11/21 05:13:19;;;;;;;28.47;8.63;;;;;;;11.30;100.00;99473.45;1724282;83;21177;-78
2022/11/21 05:13:25;;;;;;;22.25;8.23;;;;;;;11.44;100.00;99482.05;1721782;82;21200;-77
2022/11/21 05:16:24;;;;;;;18.02;6.95;;;;;;;11.45;100.00;99475.52;1724167;83;21177;-78
2022/11/21 05:19:30;;;;;;;10.32;6.47;;;;;;;10.97;100.00;99476.80;1722838;82;21796;-77
2022/11/21 05:22:37;;;;;;;17.17;6.55;;;;;;;10.83;100.00;99479.95;1724052;82;21223;-78
2022/11/21 05:25:42;;;;;;;11.85;6.25;;;;;;;10.68;100.00;99474.58;1724011;83;21615;-77
2022/11/21 05:28:47;;;;;;;11.50;6.08;;;;;;;10.36;100.00;99480.58;1723268;82;21212;-78
2022/11/21 05:31:54;;;;;;;10.00;5.97;;;;;;;10.48;100.00;99481.73;1722645;83;21183;-78
2022/11/21 05:35:00;;;;;;;10.08;6.17;;;;;;;10.10;100.00;99481.09;1724094;83;21157;-77
2022/11/21 05:38:05;;;;;;;10.98;5.50;;;;;;;10.20;100.00;99477.52;1723831;82;21216;-78
2022/11/21 05:41:11;;;;;;;13.10;5.70;;;;;;;10.07;100.00;99473.28;1724373;81;21177;-78
2022/11/21 05:44:17;;;;;;;16.32;6.20;;;;;;;10.08;100.00;99472.27;1725683;81;21191;-77
2022/11/21 05:47:24;;;;;;;11.03;5.62;;;;;;;10.25;100.00;99464.16;1749981;82;21886;-78
2022/11/21 05:50:29;;;;;;;10.93;6.10;;;;;;;10.83;100.00;99462.70;1724692;83;21164;-78
2022/11/21 05:53:36;;;;;;;12.63;6.70;;;;;;;10.56;100.00;99468.45;1727711;83;21765;-77
2022/11/21 05:56:41;;;;;;;10.60;6.90;;;;;;;10.44;100.00;99467.63;1733401;83;21760;-77
2022/11/21 05:59:46;;;;;;;10.68;6.50;;;;;;;10.46;100.00;99468.27;1719674;82;21188;-77
2022/11/21 06:06:22;;;;;;;12.23;7.42;;;;;;;10.54;100.00;99469.16;1734289;82;21757;-78
2022/11/21 06:09:28;;;;;;;17.50;9.20;;;;;;;10.20;100.00;99477.52;1732833;82;21860;-78
2022/11/21 06:12:34;;;;;;;21.87;8.23;;;;;;;9.88;100.00;99478.35;1733379;81;21204;-78
2022/11/21 06:15:39;;;;;;;12.00;7.65;;;;;;;9.75;100.00;99474.61;1728784;82;21732;-78
2022/11/21 06:18:48;;;;;;;23.60;12.65;;;;;;;9.86;100.00;99480.93;1731245;82;21167;-78
2022/11/21 06:21:56;;;;;;;20.52;10.18;;;;;;;10.06;100.00;99478.42;1722073;81;21164;-78
2022/11/21 06:25:03;;;;;;;18.30;8.38;;;;;;;10.12;100.00;99487.23;1730930;82;21188;-78
2022/11/21 06:28:10;;;;;;;25.75;7.92;;;;;;;10.11;100.00;99485.52;1709476;82;21225;-79
2022/11/21 06:31:22;;;;;;;21.12;7.33;;;;;;;10.14;100.00;99491.45;1729366;81;21295;-78
2022/11/21 06:34:28;;;;;;;22.77;7.12;;;;;;;10.21;100.00;99492.91;1733736;81;21851;-78
2022/11/21 06:37:33;;;;;;;18.52;9.65;;;;;;;10.29;100.00;99488.69;1695396;80;280921;-78
2022/11/21 06:40:38;;;;;;;39.73;8.18;;;;;;;10.32;100.00;99477.91;1678027;84;21428;-77
2022/11/21 06:43:43;;;;;;;25.70;7.85;;;;;;;10.45;100.00;99470.69;1675674;83;21168;-77
2022/11/21 06:46:49;;;;;;;36.48;16.05;;;;;;;10.52;100.00;99464.42;1678911;85;21840;-77
2022/11/21 06:49:55;;;;;;;24.43;13.43;;;;;;;10.36;100.00;99472.38;1679259;83;21179;-78
2022/11/21 06:53:03;;;;;;;33.73;9.15;;;;;;;10.46;100.00;99468.27;1663152;85;21836;-77
2022/11/21 06:56:09;;;;;;;26.48;8.43;;;;;;;10.36;100.00;99479.21;1662840;83;21169;-79
2022/11/21 06:59:14;;;;;;;22.67;8.25;;;;;;;10.27;100.00;99488.05;1682003;83;21244;-78
2022/11/21 07:02:20;;;;;;;23.62;8.78;;;;;;;10.27;100.00;99477.13;1652113;85;21254;-78
2022/11/21 07:05:25;;;;;;;28.55;9.58;;;;;;;10.54;100.00;99478.23;1687695;83;21189;-78
2022/11/21 07:08:30;;;;;;;35.28;9.40;;;;;;;10.69;100.00;99475.42;1688676;83;21241;-79
2022/11/21 07:11:38;;;;;;;35.03;9.75;;;;;;;10.85;100.00;99484.69;1656135;85;21153;-79
2022/11/21 07:14:46;;;;;;;38.25;10.58;;;;;;;10.77;100.00;99484.83;1681928;83;21159;-79
2022/11/21 07:31:39;;;;;;;23.20;12.30;;;;;;;11.77;100.00;99495.92;1786803;79;28287;-78
2022/11/21 07:34:45;;;;;;;32.35;12.68;;;;;;;11.71;100.00;99489.86;1808302;78;21259;-77
2022/11/21 07:37:52;;;;;;;43.48;15.18;;;;;;;11.21;100.00;99485.91;1737720;80;68909;-77
2022/11/21 07:40:58;;;;;;;49.25;15.90;;;;;;;11.73;100.00;99500.11;1761141;79;21228;-78
2022/11/21 07:44:04;;;;;;;55.52;18.30;;;;;;;10.37;100.00;99498.14;1743548;81;21142;-78
2022/11/21 07:47:10;;;;;;;42.85;16.75;;;;;;;10.12;100.00;99499.53;1741442;81;21160;-79
2022/11/21 07:50:16;;;;;;;62.38;17.73;;;;;;;10.13;100.00;99497.96;1743332;81;21201;-78
2022/11/21 07:53:23;;;;;;;47.80;17.25;;;;;;;10.24;100.00;99493.90;1703810;82;21149;-78
2022/11/21 07:56:28;;;;;;;57.27;20.52;;;;;;;10.31;100.00;99501.66;1740825;79;21181;-78
2022/11/21 07:59:34;;;;;;;50.08;19.77;;;;;;;10.63;100.00;99489.86;1756989;80;21776;-79
2022/11/21 08:02:40;;;;;;;59.33;19.62;;;;;;;10.41;100.00;99501.34;1728070;81;21160;-80
2022/11/21 08:05:47;;;;;;;67.92;19.60;;;;;;;10.60;100.00;99501.20;1744988;81;21795;-78
2022/11/21 08:08:47;;;;;;;57.83;22.20;;;;;;;10.56;100.00;99508.11;1743888;81;21151;-78
2022/11/21 08:11:53;;;;;;;69.87;23.35;;;;;;;10.63;100.00;99509.00;1737156;81;21774;-78
2022/11/21 08:14:58;;;;;;;59.15;21.68;;;;;;;11.33;100.00;99509.45;1739074;81;21775;-78
2022/11/21 08:18:04;;;;;;;70.80;20.43;;;;;;;11.61;100.00;99515.42;1735906;81;21470;-79
2022/11/21 08:21:10;;;;;;;76.77;20.75;;;;;;;11.18;100.00;99521.05;1724142;81;21187;-79
2022/11/21 08:24:18;;;;;;;65.92;20.92;;;;;;;11.32;100.00;99525.56;1751967;80;21168;-79
2022/11/21 08:27:23;;;;;;;92.65;22.90;;;;;;;11.38;100.00;99514.33;1752626;80;21145;-79
2022/11/21 08:30:28;;;;;;;89.35;23.15;;;;;;;11.34;100.00;99502.95;1706020;82;21177;-79
2022/11/21 08:33:34;;;;;;;87.65;22.52;;;;;;;11.16;100.00;99493.04;1715861;83;21199;-79
2022/11/21 08:36:39;;;;;;;78.83;21.60;;;;;;;11.25;100.00;99495.95;1725987;82;21237;-80
2022/11/21 08:39:44;;;;;;;86.32;23.07;;;;;;;11.30;100.00;99504.40;1709167;81;45322;-79
2022/11/21 08:42:50;;;;;;;99.75;23.27;;;;;;;11.18;100.00;99504.09;1705502;82;21174;-80
2022/11/21 08:45:55;;;;;;;78.95;23.90;;;;;;;11.22;100.00;99500.44;1726939;81;21571;-80
2022/11/21 08:49:01;;;;;;;100.87;22.42;;;;;;;11.21;100.00;99505.08;1718966;81;21227;-79
2022/11/21 08:52:07;;;;;;;104.80;21.42;;;;;;;11.35;100.00;99506.02;1721499;82;21279;-79
2022/11/21 08:55:15;;;;;;;107.85;22.13;;;;;;;11.49;100.00;99505.05;1721836;82;21141;-78
2022/11/21 08:58:20;;;;;;;105.85;23.62;;;;;;;11.27;100.00;99504.79;1668393;84;21192;-78
2022/11/21 09:01:26;;;;;;;127.10;21.57;;;;;;;11.27;100.00;99500.69;1709325;81;21239;-79
2022/11/21 09:04:32;;;;;;;105.70;24.63;;;;;;;11.39;100.00;99494.14;1729212;81;21175;-78
2022/11/21 09:07:40;;;;;;;112.40;22.67;;;;;;;11.38;100.00;99478.20;1721901;81;21218;-79
2022/11/21 09:10:45;;;;;;;122.95;24.80;;;;;;;11.43;100.00;99474.37;1667765;84;21268;-79
2022/11/21 09:20:48;;;;;;;94.45;23.55;;;;;;;11.71;100.00;99498.08;1719271;81;21781;-78
2022/11/21 09:23:53;;;;;;;80.75;23.87;;;;;;;11.74;100.00;99501.80;1706784;82;21465;-79
2022/11/21 09:26:59;;;;;;;118.02;23.85;;;;;;;12.01;100.00;99500.05;1722386;81;21822;-79
2022/11/21 09:30:05;;;;;;;87.65;23.10;;;;;;;11.90;100.00;99482.81;1725799;82;21750;-79
2022/11/21 09:33:15;;;;;;;118.08;20.52;;;;;;;11.99;100.00;99494.75;1698839;82;21259;-79
2022/11/21 09:36:21;;;;;;;127.27;21.85;;;;;;;12.19;100.00;99499.48;1756707;80;21569;-79
2022/11/21 09:39:27;;;;;;;87.37;21.00;;;;;;;12.22;100.00;99501.27;1734253;81;21183;-79
2022/11/21 09:42:47;;;;;;;73.47;18.20;;;;;;;12.27;100.00;99485.03;1734776;81;21731;-79
2022/11/21 09:45:54;;;;;;;104.55;19.75;;;;;;;12.24;100.00;99470.92;1732244;81;21178;-78
2022/11/21 09:49:07;;;;;;;98.80;19.57;;;;;;;12.33;100.00;99465.56;1728234;81;21270;-78
2022/11/21 09:52:15;;;;;;;92.00;19.27;;;;;;;12.20;100.00;99453.19;1701788;83;21188;-79
2022/11/21 09:55:45;;;;;;;83.92;19.67;;;;;;;12.15;100.00;99452.97;1730884;81;21759;-78
2022/11/21 09:59:06;;;;;;;111.60;19.50;;;;;;;12.17;100.00;99457.17;1734874;81;21893;-79
2022/11/21 13:26:40;;;;;;;105.27;46.23;;;;;;;12.74;100.00;99319.94;1816388;76;28143;-78
2022/11/21 13:29:46;;;;;;;94.03;44.30;;;;;;;12.96;100.00;99321.90;1800757;77;21209;-78
2022/11/21 13:32:58;;;;;;;134.27;51.70;;;;;;;13.05;100.00;99318.39;1748316;79;21222;-77
2022/11/21 13:36:03;;;;;;;108.65;46.18;;;;;;;12.94;100.00;99325.41;1768114;79;21208;-79
2022/11/21 13:39:14;;;;;;;102.20;43.85;;;;;;;13.15;100.00;99315.19;1752602;81;21172;-79
2022/11/21 13:45:58;;;;;;;78.83;34.67;;;;;;;12.98;100.00;99306.05;1770241;79;21242;-78
2022/11/21 13:49:11;;;;;;;76.15;26.97;;;;;;;12.86;100.00;99304.20;1743554;80;21168;-79
2022/11/21 13:52:30;;;;;;;45.40;20.62;;;;;;;12.79;100.00;99302.83;1762785;79;21251;-79
2022/11/21 13:56:00;;;;;;;44.43;18.20;;;;;;;12.82;100.00;99303.78;1765046;79;21730;-79
2022/11/21 13:59:44;;;;;;;39.35;15.65;;;;;;;12.86;100.00;99290.48;1748055;81;21175;-79
2022/11/21 14:03:22;;;;;;;55.30;15.20;;;;;;;12.74;100.00;99288.92;1773371;79;21239;-79
2022/11/21 14:06:45;;;;;;;53.17;15.13;;;;;;;12.67;100.00;99280.72;1785560;79;21754;-79
2022/11/21 14:09:55;;;;;;;38.20;15.05;;;;;;;12.78;100.00;99269.06;1788740;79;21227;-79
2022/11/21 14:13:00;;;;;;;45.67;14.23;;;;;;;12.74;100.00;99266.97;1814023;78;21214;-79
2022/11/21 14:16:32;;;;;;;43.35;14.13;;;;;;;12.93;100.00;99261.94;1810272;78;21170;-79
2022/11/21 14:19:37;;;;;;;50.90;15.30;;;;;;;13.01;100.00;99254.84;1791430;79;21690;-79
2022/11/21 14:23:07;;;;;;;62.98;17.57;;;;;;;12.99;100.00;99239.13;1805819;79;21171;-79
2022/11/21 14:26:20;;;;;;;52.33;18.02;;;;;;;12.97;100.00;99233.53;1790547;79;21176;-79
2022/11/21 14:29:35;;;;;;;48.90;17.05;;;;;;;13.28;100.00;99228.67;1807380;78;21199;-79
2022/11/21 14:32:40;;;;;;;43.92;15.75;;;;;;;13.39;100.00;99235.36;1794900;78;21759;-79
2022/11/21 14:35:47;;;;;;;47.95;14.87;;;;;;;13.16;100.00;99229.84;1781130;80;21184;-79
2022/11/21 14:39:04;;;;;;;49.80;16.37;;;;;;;13.35;100.00;99226.70;1816171;79;21211;-79
2022/11/21 14:42:14;;;;;;;60.13;17.83;;;;;;;13.29;100.00;99219.36;1792363;79;21192;-79
2022/11/21 14:45:25;;;;;;;70.60;18.80;;;;;;;13.46;100.00;99223.28;1805525;79;21192;-79
2022/11/21 14:48:37;;;;;;;62.15;17.80;;;;;;;13.37;100.00;99210.03;1790732;79;21223;-78
2022/11/21 14:51:44;;;;;;;75.87;18.75;;;;;;;13.47;100.00;99212.59;1781471;79;21204;-78
2022/11/21 14:54:58;;;;;;;50.90;16.85;;;;;;;13.46;100.00;99211.45;1786367;79;21216;-78
2022/11/21 14:58:09;;;;;;;50.33;15.13;;;;;;;13.35;100.00;99208.86;1811810;78;21152;-77
2022/11/21 15:01:26;;;;;;;53.02;15.40;;;;;;;13.46;100.00;99198.55;1818918;78;21725;-77
2022/11/21 15:04:41;;;;;;;76.33;19.52;;;;;;;13.43;100.00;99193.49;1812360;78;21169;-77
2022/11/21 15:07:51;;;;;;;56.50;15.45;;;;;;;13.71;100.00;99193.61;1813591;78;21806;-77
2022/11/21 15:10:57;;;;;;;58.60;15.80;;;;;;;13.69;100.00;99177.86;1807011;78;21148;-79
2022/11/21 15:14:07;;;;;;;50.52;14.83;;;;;;;13.44;100.00;99173.73;1784748;79;21170;-79
2022/11/21 15:17:19;;;;;;;51.35;15.55;;;;;;;13.76;100.00;99169.87;1787420;79;21687;-79
2022/11/21 15:20:26;;;;;;;54.67;12.65;;;;;;;14.00;100.00;99160.47;1814346;78;21152;-79
2022/11/21 15:23:44;;;;;;;40.00;13.85;;;;;;;14.07;100.00;99153.02;1812575;78;21202;-79
2022/11/21 15:26:50;;;;;;;49.85;15.00;;;;;;;14.16;100.00;99152.16;1795770;79;21231;-78
2022/11/21 15:30:20;;;;;;;53.75;13.88;;;;;;;14.16;100.00;99146.66;1806865;78;21164;-78
2022/11/21 15:33:26;;;;;;;39.50;11.88;;;;;;;14.18;100.00;99146.75;1794561;79;21196;-77
2022/11/21 15:36:32;;;;;;;54.05;13.50;;;;;;;14.25;100.00;99143.38;1819375;78;21217;-78
2022/11/21 15:39:38;;;;;;;51.02;12.70;;;;;;;14.19;100.00;99137.96;1805052;78;21172;-78
2022/11/21 15:42:43;;;;;;;51.15;13.83;;;;;;;14.16;100.00;99150.27;1819540;78;21188;-78
2022/11/21 15:45:49;;;;;;;34.30;11.50;;;;;;;13.94;100.00;99162.76;1804939;79;21180;-78
2022/11/21 15:49:00;;;;;;;43.08;12.18;;;;;;;13.97;100.00;99149.41;1801869;78;21721;-78
2022/11/21 15:52:07;;;;;;;63.55;13.53;;;;;;;14.17;100.00;99162.11;1773805;79;21196;-78
2022/11/21 15:55:17;;;;;;;31.62;10.82;;;;;;;13.94;100.00;99164.97;1742736;81;21208;-78
2022/11/21 15:58:25;;;;;;;43.10;11.35;;;;;;;13.97;100.00;99163.66;1753610;80;21242;-78
2022/11/21 16:01:34;;;;;;;39.38;11.88;;;;;;;14.11;100.00;99160.25;1766716;80;21732;-78
2022/11/21 16:04:39;;;;;;;50.10;12.80;;;;;;;14.13;100.00;99156.22;1749749;80;21215;-78
2022/11/21 16:07:46;;;;;;;36.48;11.63;;;;;;;14.21;100.00;99152.31;1758002;80;21207;-78
2022/11/21 16:10:52;;;;;;;41.65;11.85;;;;;;;13.99;100.00;99161.01;1757244;80;21664;-78
2022/11/21 16:14:02;;;;;;;37.60;11.50;;;;;;;14.09;100.00;99161.02;1755737;80;21781;-78
2022/11/21 16:17:08;;;;;;;48.98;11.53;;;;;;;14.06;100.00;99158.18;1751553;81;21235;-78
2022/11/21 16:20:15;;;;;;;35.15;11.75;;;;;;;14.05;100.00;99157.88;1748781;80;21180;-78
2022/11/21 16:23:21;;;;;;;31.95;11.35;;;;;;;13.90;100.00;99164.27;1760425;80;21163;-78
2022/11/21 16:26:30;;;;;;;44.77;13.22;;;;;;;14.13;100.00;99151.25;1757800;80;21271;-78
2022/11/21 16:29:35;;;;;;;43.60;12.13;;;;;;;14.00;100.00;99138.48;1753863;80;21179;-78
2022/11/21 16:32:41;;;;;;;30.97;10.63;;;;;;;13.95;100.00;99135.03;1761132;81;21737;-78
2022/11/21 16:35:48;;;;;;;34.73;9.93;;;;;;;13.87;100.00;99125.69;1737655;82;21243;-78
2022/11/21 16:38:52;;;;;;;37.95;10.03;;;;;;;13.60;100.00;99127.00;1742741;81;21235;-78
2022/11/21 16:41:59;;;;;;;29.30;8.70;;;;;;;13.74;100.00;99122.56;1735739;81;21187;-78
2022/11/21 16:45:04;;;;;;;32.20;9.48;;;;;;;13.87;100.00;99121.57;1754976;81;21188;-78
2022/11/21 16:48:11;;;;;;;32.80;8.45;;;;;;;14.05;100.00;99114.72;1757276;80;21192;-78
2022/11/21 16:51:27;;;;;;;34.90;9.23;;;;;;;14.11;100.00;99108.84;1733434;81;21172;-78
2022/11/21 16:54:32;;;;;;;34.15;9.40;;;;;;;14.09;100.00;99101.91;1742733;81;21956;-78
2022/11/21 16:57:41;;;;;;;34.15;9.03;;;;;;;14.05;100.00;99102.89;1730838;82;21244;-78
2022/11/21 17:00:47;;;;;;;37.23;8.38;;;;;;;14.36;100.00;99098.33;1726346;81;21210;-78
2022/11/21 17:03:53;;;;;;;42.17;8.53;;;;;;;14.34;100.00;99097.16;1741810;81;21305;-78
2022/11/21 17:06:58;;;;;;;45.20;10.15;;;;;;;14.39;100.00;99092.34;1758410;80;21755;-78
2022/11/21 17:10:04;;;;;;;28.55;8.15;;;;;;;14.43;100.00;99097.15;1762792;80;21865;-78
2022/11/21 17:13:09;;;;;;;32.28;8.88;;;;;;;14.50;100.00;99090.23;1752754;81;21200;-78
2022/11/21 17:16:15;;;;;;;34.43;9.63;;;;;;;14.63;100.00;99098.30;1748746;81;21261;-78
2022/11/21 17:19:21;;;;;;;32.35;7.70;;;;;;;14.27;100.00;99096.41;1742536;82;21179;-78
2022/11/21 17:22:27;;;;;;;26.52;7.90;;;;;;;14.32;100.00;99093.81;1737548;82;21256;-77
2022/11/21 17:25:32;;;;;;;25.70;7.08;;;;;;;14.44;99.57;99097.45;1735941;82;21219;-77
2022/11/21 17:28:37;;;;;;;28.92;7.90;;;;;;;14.64;97.69;99095.04;1751619;80;21811;-77
2022/11/21 17:31:44;;;;;;;37.60;7.65;;;;;;;13.67;100.00;99092.08;1756050;80;21222;-77
2022/11/21 17:34:50;;;;;;;25.97;7.25;;;;;;;13.27;100.00;99089.16;1757914;81;21769;-77
2022/11/21 17:37:56;;;;;;;24.12;7.28;;;;;;;13.23;100.00;99096.16;1763860;80;21252;-77
2022/11/21 17:41:12;;;;;;;26.57;6.60;;;;;;;13.22;100.00;99097.73;1753300;81;21191;-77
2022/11/21 17:44:21;;;;;;;25.85;6.47;;;;;;;13.18;100.00;99090.99;1766178;80;21181;-76
2022/11/21 17:47:27;;;;;;;31.52;6.72;;;;;;;13.15;100.00;99100.50;1764275;80;21175;-76
2022/11/21 17:50:32;;;;;;;25.77;7.67;;;;;;;13.14;100.00;99096.08;1752408;81;21144;-77
2022/11/21 17:53:42;;;;;;;31.62;7.92;;;;;;;13.51;100.00;99087.47;1752102;80;21219;-76
2022/11/21 17:56:47;;;;;;;36.15;8.25;;;;;;;14.14;99.42;99078.69;1752541;81;21229;-76
2022/11/21 17:59:55;;;;;;;30.45;7.28;;;;;;;14.19;98.46;99074.71;1736282;82;21224;-76
2022/11/21 18:03:02;;;;;;;24.65;6.72;;;;;;;14.46;96.44;99076.07;1743280;82;21216;-76
2022/11/21 18:06:15;;;;;;;36.83;7.37;;;;;;;14.70;95.12;99081.17;1712349;82;21809;-76